createdAt,value
2023-04-19T00:00:14.307Z,308.77
2023-04-19T00:01:14.269Z,311.41
2023-04-19T00:02:14.269Z,309.64
2023-04-19T00:03:14.369Z,309.35
2023-04-19T00:04:14.977Z,310.23
2023-04-19T00:05:14.256Z,309.06
2023-04-19T00:06:14.208Z,309.64
2023-04-19T00:07:14.173Z,311.70
2023-04-19T00:08:14.184Z,311.11
2023-04-19T00:09:14.192Z,310.52
2023-04-19T00:10:14.168Z,310.23
2023-04-19T00:11:13.410Z,312.30
2023-04-19T00:12:14.111Z,312.60
2023-04-19T00:13:14.111Z,309.64
2023-04-19T00:14:15.099Z,311.11
2023-04-19T00:15:14.079Z,310.23
2023-04-19T00:16:13.829Z,308.48
2023-04-19T00:17:14.026Z,308.48
2023-04-19T00:18:13.796Z,307.90
2023-04-19T00:19:13.761Z,307.04
2023-04-19T00:20:14.012Z,309.94
2023-04-19T00:21:14.002Z,309.35
2023-04-19T00:22:14.225Z,307.61
2023-04-19T00:23:13.970Z,306.75
2023-04-19T00:24:14.238Z,307.04
2023-04-19T00:25:13.949Z,307.33
2023-04-19T00:26:13.929Z,308.19
2023-04-19T00:27:13.532Z,308.19
2023-04-19T00:28:13.901Z,309.64
2023-04-19T00:29:13.891Z,309.35
2023-04-19T00:30:14.630Z,307.90
2023-04-19T00:31:13.943Z,309.35
2023-04-19T00:32:13.649Z,308.19
2023-04-19T00:33:13.883Z,309.64
2023-04-19T00:34:14.134Z,309.35
2023-04-19T00:35:13.745Z,307.61
2023-04-19T00:36:13.814Z,309.35
2023-04-19T00:37:14.513Z,307.33
2023-04-19T00:38:14.488Z,307.90
2023-04-19T00:39:14.499Z,310.23
2023-04-19T00:40:14.457Z,309.94
2023-04-19T00:41:14.469Z,307.61
2023-04-19T00:42:14.461Z,308.19
2023-04-19T00:43:14.417Z,308.48
2023-04-19T00:44:14.781Z,310.52
2023-04-19T00:45:14.408Z,307.90
2023-04-19T00:46:14.409Z,310.23
2023-04-19T00:47:14.374Z,308.77
2023-04-19T00:48:14.361Z,309.35
2023-04-19T00:49:14.360Z,309.94
2023-04-19T00:50:14.384Z,309.06
2023-04-19T00:51:13.608Z,309.35
2023-04-19T00:52:14.318Z,309.64
2023-04-19T00:53:13.558Z,308.48
2023-04-19T00:54:13.850Z,307.33
2023-04-19T00:55:13.584Z,309.64
2023-04-19T00:56:13.526Z,307.04
2023-04-19T00:57:14.195Z,306.46
2023-04-19T00:58:13.505Z,307.61
2023-04-19T00:59:12.844Z,308.77
2023-04-19T01:00:13.467Z,307.90
2023-04-19T01:01:13.487Z,308.48
2023-04-19T01:02:13.476Z,309.94
2023-04-19T01:03:13.602Z,310.52
2023-04-19T01:04:13.613Z,307.33
2023-04-19T01:05:13.404Z,309.94
2023-04-19T01:06:13.420Z,307.90
2023-04-19T01:07:13.348Z,307.04
2023-04-19T01:08:13.586Z,310.23
2023-04-19T01:09:13.361Z,309.06
2023-04-19T01:10:13.343Z,309.64
2023-04-19T01:11:13.321Z,307.90
2023-04-19T01:12:13.990Z,311.11
2023-04-19T01:13:13.289Z,312.60
2023-04-19T01:14:13.425Z,310.52
2023-04-19T01:15:13.257Z,309.64
2023-04-19T01:16:13.317Z,310.52
2023-04-19T01:17:13.208Z,310.23
2023-04-19T01:18:13.222Z,312.30
2023-04-19T01:19:13.932Z,311.11
2023-04-19T01:20:13.193Z,310.23
2023-04-19T01:21:13.188Z,313.19
2023-04-19T01:22:13.150Z,310.82
2023-04-19T01:23:13.149Z,312.30
2023-04-19T01:24:13.242Z,310.82
2023-04-19T01:25:13.807Z,312.89
2023-04-19T01:26:13.117Z,314.69
2023-04-19T01:27:13.109Z,313.79
2023-04-19T01:28:13.774Z,314.39
2023-04-19T01:29:13.070Z,313.79
2023-04-19T01:30:13.070Z,314.09
2023-04-19T01:31:12.520Z,313.79
2023-04-19T01:32:13.066Z,315.60
2023-04-19T01:33:13.004Z,314.69
2023-04-19T01:34:13.182Z,317.13
2023-04-19T01:35:12.999Z,317.74
2023-04-19T01:36:12.703Z,317.13
2023-04-19T01:37:12.958Z,318.05
2023-04-19T01:38:12.948Z,319.29
2023-04-19T01:39:12.685Z,317.43
2023-04-19T01:40:12.692Z,318.98
2023-04-19T01:41:12.913Z,317.13
2023-04-19T01:42:12.889Z,320.22
2023-04-19T01:43:12.874Z,319.29
2023-04-19T01:45:12.848Z,320.54
2023-04-19T01:46:13.575Z,319.91
2023-04-19T01:47:12.847Z,319.60
2023-04-19T01:48:12.794Z,319.91
2023-04-19T01:49:12.816Z,321.79
2023-04-19T01:50:12.793Z,320.85
2023-04-19T01:51:12.768Z,321.79
2023-04-19T01:52:12.791Z,324.02
2023-04-19T01:53:12.733Z,321.79
2023-04-19T01:54:12.896Z,322.11
2023-04-19T01:55:12.918Z,321.79
2023-04-19T01:56:12.707Z,322.74
2023-04-19T01:57:13.415Z,323.06
2023-04-19T01:58:12.669Z,323.06
2023-04-19T01:59:12.658Z,323.38
2023-04-19T02:00:13.316Z,321.79
2023-04-19T02:01:12.728Z,323.06
2023-04-19T02:02:13.394Z,322.42
2023-04-19T02:03:12.670Z,322.11
2023-04-19T02:04:12.622Z,323.06
2023-04-19T02:05:12.579Z,322.11
2023-04-19T02:06:13.245Z,323.70
2023-04-19T02:07:12.551Z,326.92
2023-04-19T02:08:12.525Z,326.60
2023-04-19T02:09:12.546Z,324.66
2023-04-19T02:10:12.512Z,325.95
2023-04-19T02:11:12.501Z,327.58
2023-04-19T02:12:12.514Z,325.95
2023-04-19T02:13:12.451Z,328.56
2023-04-19T02:14:12.459Z,329.22
2023-04-19T02:15:12.465Z,330.88
2023-04-19T02:16:13.192Z,329.88
2023-04-19T02:17:12.425Z,330.88
2023-04-19T02:18:12.386Z,333.23
2023-04-19T02:19:12.399Z,331.55
2023-04-19T02:20:12.390Z,331.55
2023-04-19T02:21:12.373Z,332.89
2023-04-19T02:22:12.353Z,331.88
2023-04-19T02:23:12.310Z,330.88
2023-04-19T02:24:12.336Z,328.89
2023-04-19T02:25:12.989Z,330.21
2023-04-19T02:26:12.297Z,332.22
2023-04-19T02:27:12.302Z,330.55
2023-04-19T02:28:12.240Z,328.56
2023-04-19T02:29:12.251Z,329.22
2023-04-19T02:30:12.260Z,327.25
2023-04-19T02:31:12.241Z,325.30
2023-04-19T02:32:11.920Z,325.95
2023-04-19T02:33:12.190Z,323.70
2023-04-19T02:34:12.263Z,323.70
2023-04-19T02:35:12.181Z,324.34
2023-04-19T02:36:12.170Z,325.62
2023-04-19T02:37:11.918Z,323.70
2023-04-19T02:38:11.914Z,323.38
2023-04-19T02:39:12.139Z,322.11
2023-04-19T02:40:12.795Z,322.74
2023-04-19T02:41:12.096Z,321.79
2023-04-19T02:42:12.100Z,320.85
2023-04-19T02:43:12.041Z,321.48
2023-04-19T02:44:12.099Z,322.11
2023-04-19T02:45:12.058Z,321.16
2023-04-19T02:46:12.042Z,318.98
2023-04-19T02:47:12.014Z,317.74
2023-04-19T02:48:12.048Z,319.29
2023-04-19T02:49:11.978Z,318.36
2023-04-19T02:50:11.968Z,318.98
2023-04-19T02:51:11.966Z,317.13
2023-04-19T02:52:12.611Z,319.29
2023-04-19T02:53:11.917Z,317.13
2023-04-19T02:54:11.949Z,316.21
2023-04-19T02:55:11.899Z,315.91
2023-04-19T02:56:12.604Z,315.30
2023-04-19T02:57:11.895Z,315.00
2023-04-19T02:58:12.540Z,316.21
2023-04-19T02:59:11.852Z,314.69
2023-04-19T03:00:12.580Z,312.60
2023-04-19T03:01:12.591Z,311.70
2023-04-19T03:02:12.561Z,312.00
2023-04-19T03:03:12.647Z,311.11
2023-04-19T03:04:12.555Z,311.11
2023-04-19T03:05:12.483Z,311.11
2023-04-19T03:06:12.496Z,310.23
2023-04-19T03:07:11.736Z,309.64
2023-04-19T03:08:12.469Z,308.77
2023-04-19T03:09:12.446Z,305.89
2023-04-19T03:10:11.710Z,306.46
2023-04-19T03:11:11.721Z,306.75
2023-04-19T03:12:11.673Z,308.19
2023-04-19T03:13:11.903Z,304.76
2023-04-19T03:14:11.655Z,305.32
2023-04-19T03:15:11.867Z,303.91
2023-04-19T03:16:11.642Z,304.19
2023-04-19T03:17:12.281Z,303.35
2023-04-19T03:18:11.569Z,305.04
2023-04-19T03:19:12.256Z,303.07
2023-04-19T03:20:12.241Z,302.51
2023-04-19T03:21:11.601Z,304.19
2023-04-19T03:22:11.555Z,305.32
2023-04-19T03:23:11.514Z,303.07
2023-04-19T03:24:11.501Z,300.84
2023-04-19T03:25:11.734Z,300.84
2023-04-19T03:26:11.474Z,298.65
2023-04-19T03:27:11.464Z,299.74
2023-04-19T03:28:12.180Z,299.20
2023-04-19T03:29:11.428Z,299.47
2023-04-19T03:30:11.424Z,298.11
2023-04-19T03:31:11.447Z,296.49
2023-04-19T03:32:11.388Z,297.03
2023-04-19T03:33:11.247Z,294.90
2023-04-19T03:34:11.366Z,294.10
2023-04-19T03:35:11.345Z,294.10
2023-04-19T03:36:12.029Z,293.05
2023-04-19T03:37:12.004Z,294.37
2023-04-19T03:38:11.286Z,293.05
2023-04-19T03:39:11.295Z,291.49
2023-04-19T03:40:11.298Z,293.05
2023-04-19T03:41:11.266Z,293.05
2023-04-19T03:42:11.258Z,293.58
2023-04-19T03:43:11.229Z,291.23
2023-04-19T03:44:11.225Z,290.46
2023-04-19T03:45:11.229Z,290.46
2023-04-19T03:46:11.265Z,291.49
2023-04-19T03:47:11.187Z,288.16
2023-04-19T03:48:11.952Z,288.16
2023-04-19T03:49:11.398Z,287.66
2023-04-19T03:50:11.143Z,287.15
2023-04-19T03:51:11.814Z,287.40
2023-04-19T03:52:11.786Z,287.15
2023-04-19T03:53:11.075Z,286.90
2023-04-19T03:54:11.092Z,286.15
2023-04-19T03:55:11.118Z,286.40
2023-04-19T03:56:11.067Z,285.90
2023-04-19T03:57:11.059Z,286.40
2023-04-19T03:58:11.730Z,284.91
2023-04-19T03:59:10.793Z,284.91
2023-04-19T04:00:10.819Z,285.40
2023-04-19T04:01:10.994Z,283.92
2023-04-19T04:02:11.113Z,282.46
2023-04-19T04:03:11.138Z,283.92
2023-04-19T04:04:11.065Z,283.92
2023-04-19T04:05:11.072Z,283.19
2023-04-19T04:06:10.985Z,282.46
2023-04-19T04:07:10.916Z,283.92
2023-04-19T04:08:10.899Z,281.97
2023-04-19T04:09:10.890Z,282.94
2023-04-19T04:10:10.877Z,284.42
2023-04-19T04:11:10.850Z,282.70
2023-04-19T04:12:10.854Z,282.46
2023-04-19T04:13:11.793Z,282.46
2023-04-19T04:14:10.813Z,280.77
2023-04-19T04:15:11.525Z,280.77
2023-04-19T04:16:10.833Z,285.16
2023-04-19T04:17:10.767Z,284.42
2023-04-19T04:18:10.764Z,281.49
2023-04-19T04:19:10.746Z,282.94
2023-04-19T04:20:10.746Z,282.46
2023-04-19T04:21:11.450Z,283.92
2023-04-19T04:22:10.694Z,282.21
2023-04-19T04:23:10.686Z,286.15
2023-04-19T04:24:10.702Z,282.21
2023-04-19T04:25:10.902Z,284.66
2023-04-19T04:26:10.646Z,282.94
2023-04-19T04:27:10.643Z,282.70
2023-04-19T04:28:10.612Z,283.92
2023-04-19T04:29:11.294Z,285.40
2023-04-19T04:30:11.281Z,283.68
2023-04-19T04:31:10.586Z,282.70
2023-04-19T04:32:11.429Z,282.70
2023-04-19T04:33:10.800Z,283.19
2023-04-19T04:34:10.550Z,282.94
2023-04-19T04:35:10.590Z,285.90
2023-04-19T04:36:10.521Z,283.68
2023-04-19T04:37:10.735Z,284.66
2023-04-19T04:38:21.549Z,285.65
2023-04-19T04:39:11.483Z,284.66
2023-04-19T04:40:10.476Z,284.66
2023-04-19T04:41:10.469Z,286.90
2023-04-19T04:42:10.452Z,285.40
2023-04-19T04:43:10.681Z,286.15
2023-04-19T04:44:12.999Z,285.65
2023-04-19T04:45:10.641Z,285.90
2023-04-19T04:46:10.455Z,283.19
2023-04-19T04:47:10.388Z,283.43
2023-04-19T04:48:10.284Z,285.65
2023-04-19T04:49:11.039Z,283.92
2023-04-19T04:50:10.354Z,284.42
2023-04-19T04:51:10.346Z,284.17
2023-04-19T04:52:10.325Z,285.65
2023-04-19T04:53:12.784Z,284.66
2023-04-19T04:54:10.061Z,285.16
2023-04-19T04:55:10.019Z,286.40
2023-04-19T04:56:10.022Z,285.90
2023-04-19T04:57:10.032Z,285.40
2023-04-19T04:58:10.027Z,286.40
2023-04-19T04:59:10.239Z,286.15
2023-04-19T05:00:10.213Z,285.90
2023-04-19T05:01:10.881Z,288.92
2023-04-19T05:02:10.213Z,286.40
2023-04-19T05:03:10.310Z,287.91
2023-04-19T05:04:10.436Z,288.16
2023-04-19T05:05:10.165Z,286.65
2023-04-19T05:06:09.451Z,287.91
2023-04-19T05:07:10.109Z,290.20
2023-04-19T05:08:10.118Z,288.92
2023-04-19T05:09:10.411Z,290.71
2023-04-19T05:10:10.118Z,290.71
2023-04-19T05:11:09.712Z,292.53
2023-04-19T05:12:09.293Z,291.75
2023-04-19T05:13:10.037Z,292.01
2023-04-19T05:14:09.679Z,291.23
2023-04-19T05:15:10.007Z,292.53
2023-04-19T05:16:10.076Z,291.49
2023-04-19T05:17:12.471Z,292.27
2023-04-19T05:18:10.429Z,293.31
2023-04-19T05:19:09.873Z,294.37
2023-04-19T05:20:09.876Z,295.16
2023-04-19T05:21:10.647Z,294.37
2023-04-19T05:22:09.922Z,296.49
2023-04-19T05:23:10.626Z,295.43
2023-04-19T05:24:10.656Z,293.84
2023-04-19T05:25:10.662Z,294.90
2023-04-19T05:26:10.605Z,297.30
2023-04-19T05:27:10.565Z,297.03
2023-04-19T05:28:10.613Z,295.96
2023-04-19T05:29:10.561Z,297.30
2023-04-19T05:30:09.217Z,296.76
2023-04-19T05:31:09.817Z,297.57
2023-04-19T05:32:09.768Z,298.11
2023-04-19T05:33:09.831Z,298.38
2023-04-19T05:34:09.742Z,297.84
2023-04-19T05:35:09.730Z,298.38
2023-04-19T05:36:09.722Z,299.47
2023-04-19T05:37:09.742Z,298.11
2023-04-19T05:38:09.690Z,298.65
2023-04-19T05:39:09.659Z,299.74
2023-04-19T05:40:09.696Z,298.11
2023-04-19T05:41:09.657Z,296.76
2023-04-19T05:42:09.637Z,300.29
2023-04-19T05:43:09.775Z,300.57
2023-04-19T05:44:09.591Z,302.23
2023-04-19T05:45:09.590Z,300.29
2023-04-19T05:46:09.621Z,299.20
2023-04-19T05:47:09.570Z,303.63
2023-04-19T05:48:09.652Z,301.40
2023-04-19T05:49:09.792Z,303.91
2023-04-19T05:50:10.225Z,301.40
2023-04-19T05:51:09.529Z,300.57
2023-04-19T05:52:09.500Z,302.23
2023-04-19T05:53:09.487Z,301.67
2023-04-19T05:54:09.461Z,300.84
2023-04-19T05:55:09.473Z,300.57
2023-04-19T05:56:09.481Z,302.79
2023-04-19T05:57:09.446Z,300.57
2023-04-19T05:58:09.420Z,301.12
2023-04-19T05:59:09.387Z,301.95
2023-04-19T06:00:09.423Z,302.23
2023-04-19T06:01:10.050Z,304.47
2023-04-19T06:02:09.097Z,304.47
2023-04-19T06:03:09.607Z,303.35
2023-04-19T06:04:09.422Z,302.79
2023-04-19T06:05:10.560Z,303.07
2023-04-19T06:06:09.349Z,305.89
2023-04-19T06:07:17.799Z,304.76
2023-04-19T06:08:10.285Z,304.19
2023-04-19T06:09:09.292Z,305.61
2023-04-19T06:10:08.725Z,307.04
2023-04-19T06:11:22.004Z,306.18
2023-04-19T06:12:10.225Z,305.32
2023-04-19T06:13:09.213Z,308.48
2023-04-19T06:14:09.220Z,309.64
2023-04-19T06:15:09.867Z,307.90
2023-04-19T06:16:09.250Z,308.77
2023-04-19T06:17:09.159Z,309.64
2023-04-19T06:18:08.969Z,311.41
2023-04-19T06:19:08.912Z,312.00
2023-04-19T06:20:09.132Z,310.52
2023-04-19T06:21:09.104Z,313.19
2023-04-19T06:22:09.131Z,314.69
2023-04-19T06:23:09.111Z,314.09
2023-04-19T06:24:09.087Z,315.30
2023-04-19T06:25:09.055Z,316.82
2023-04-19T06:26:09.038Z,315.60
2023-04-19T06:27:09.028Z,315.60
2023-04-19T06:28:09.023Z,317.13
2023-04-19T06:29:08.982Z,315.91
2023-04-19T06:30:08.992Z,315.60
2023-04-19T06:31:09.231Z,318.05
2023-04-19T06:32:08.960Z,318.67
2023-04-19T06:33:08.955Z,316.21
2023-04-19T06:34:09.660Z,318.98
2023-04-19T06:35:09.650Z,316.82
2023-04-19T06:36:08.907Z,318.67
2023-04-19T06:37:08.902Z,318.98
2023-04-19T06:38:08.905Z,318.05
2023-04-19T06:39:08.844Z,321.16
2023-04-19T06:40:08.850Z,321.79
2023-04-19T06:41:08.836Z,324.66
2023-04-19T06:42:08.839Z,322.11
2023-04-19T06:43:08.814Z,323.38
2023-04-19T06:44:08.821Z,322.11
2023-04-19T06:45:08.787Z,324.34
2023-04-19T06:46:08.792Z,322.42
2023-04-19T06:47:08.773Z,325.62
2023-04-19T06:48:09.447Z,325.62
2023-04-19T06:49:08.981Z,324.34
2023-04-19T06:50:08.736Z,326.60
2023-04-19T06:51:08.704Z,325.62
2023-04-19T06:52:08.684Z,324.34
2023-04-19T06:53:08.672Z,325.30
2023-04-19T06:54:08.662Z,329.55
2023-04-19T06:55:08.649Z,327.58
2023-04-19T06:56:08.632Z,327.25
2023-04-19T06:57:08.620Z,326.92
2023-04-19T06:58:08.601Z,327.58
2023-04-19T06:59:08.594Z,327.90
2023-04-19T07:00:08.554Z,330.55
2023-04-19T07:01:08.581Z,328.89
2023-04-19T07:02:08.614Z,329.22
2023-04-19T07:03:08.776Z,327.58
2023-04-19T07:04:08.728Z,329.22
2023-04-19T07:05:08.490Z,329.55
2023-04-19T07:06:09.168Z,329.88
2023-04-19T07:07:09.170Z,329.22
2023-04-19T07:08:08.460Z,329.88
2023-04-19T07:09:08.487Z,332.55
2023-04-19T07:10:08.411Z,328.56
2023-04-19T07:11:09.101Z,329.22
2023-04-19T07:12:08.423Z,327.58
2023-04-19T07:13:08.408Z,330.55
2023-04-19T07:14:08.401Z,330.55
2023-04-19T07:15:08.351Z,329.88
2023-04-19T07:16:08.179Z,331.55
2023-04-19T07:17:08.380Z,333.91
2023-04-19T07:18:08.359Z,334.25
2023-04-19T07:19:08.305Z,332.89
2023-04-19T07:20:08.421Z,333.91
2023-04-19T07:21:08.295Z,334.93
2023-04-19T07:22:08.268Z,335.62
2023-04-19T07:23:08.267Z,337.00
2023-04-19T07:24:08.250Z,338.39
2023-04-19T07:25:08.926Z,339.08
2023-04-19T07:26:08.217Z,338.39
2023-04-19T07:27:08.881Z,339.79
2023-04-19T07:28:08.186Z,338.39
2023-04-19T07:29:08.864Z,340.85
2023-04-19T07:30:08.135Z,340.85
2023-04-19T07:31:08.824Z,342.98
2023-04-19T07:32:08.935Z,343.70
2023-04-19T07:33:08.933Z,344.06
2023-04-19T07:34:08.162Z,344.42
2023-04-19T07:35:08.074Z,346.97
2023-04-19T07:36:08.100Z,347.34
2023-04-19T07:37:08.068Z,349.93
2023-04-19T07:38:08.049Z,349.19
2023-04-19T07:39:08.061Z,351.06
2023-04-19T07:40:08.767Z,352.95
2023-04-19T07:41:08.741Z,353.33
2023-04-19T07:42:08.681Z,352.95
2023-04-19T07:43:08.713Z,353.71
2023-04-19T07:44:08.694Z,355.62
2023-04-19T07:45:08.713Z,352.57
2023-04-19T07:46:08.674Z,354.47
2023-04-19T07:47:08.657Z,356.01
2023-04-19T07:48:08.203Z,358.34
2023-04-19T07:49:07.896Z,359.52
2023-04-19T07:50:07.877Z,362.70
2023-04-19T07:51:07.889Z,360.70
2023-04-19T07:52:07.872Z,361.50
2023-04-19T07:53:07.856Z,362.30
2023-04-19T07:54:07.844Z,362.70
2023-04-19T07:55:07.797Z,364.31
2023-04-19T07:56:07.826Z,364.31
2023-04-19T07:57:07.809Z,365.12
2023-04-19T07:58:07.776Z,367.58
2023-04-19T07:59:09.313Z,368.81
2023-04-19T08:00:07.737Z,370.90
2023-04-19T08:01:07.782Z,372.58
2023-04-19T08:02:07.830Z,377.30
2023-04-19T08:03:08.013Z,378.17
2023-04-19T08:04:08.658Z,381.70
2023-04-19T08:05:08.071Z,377.73
2023-04-19T08:06:08.394Z,385.01
2023-04-19T08:07:07.680Z,385.45
2023-04-19T08:08:07.669Z,390.19
2023-04-19T08:09:07.631Z,389.51
2023-04-19T08:10:07.860Z,390.65
2023-04-19T08:11:07.660Z,395.51
2023-04-19T08:12:07.594Z,392.02
2023-04-19T08:13:07.581Z,397.16
2023-04-19T08:14:15.124Z,395.75
2023-04-19T08:17:24.089Z,408.35
2023-04-19T08:18:08.581Z,408.85
2023-04-19T08:19:07.513Z,411.88
2023-04-19T08:20:07.453Z,416.51
2023-04-19T08:21:07.475Z,421.51
2023-04-19T08:22:07.457Z,420.98
2023-04-19T08:23:20.475Z,425.28
2023-04-19T08:24:09.079Z,427.73
2023-04-19T08:25:07.390Z,434.14
2023-04-19T08:26:07.406Z,436.70
2023-04-19T08:27:08.112Z,443.67
2023-04-19T08:28:07.370Z,447.84
2023-04-19T08:29:07.382Z,444.85
2023-04-19T08:30:07.317Z,448.14
2023-04-19T08:31:07.376Z,449.95
2023-04-19T08:32:07.368Z,454.87
2023-04-19T08:33:07.992Z,455.49
2023-04-19T08:34:07.354Z,460.52
2023-04-19T08:35:07.269Z,461.48
2023-04-19T08:36:07.024Z,463.72
2023-04-19T08:37:07.020Z,469.60
2023-04-19T08:38:07.922Z,471.93
2023-04-19T08:39:14.867Z,479.74
2023-04-19T08:40:08.183Z,481.47
2023-04-19T08:41:07.199Z,482.51
2023-04-19T08:42:13.422Z,483.91
2023-04-19T08:43:08.382Z,488.88
2023-04-19T08:44:08.391Z,490.68
2023-04-19T08:46:07.993Z,487.81
2023-04-19T08:47:07.142Z,491.77
2023-04-19T08:48:07.130Z,489.60
2023-04-19T08:49:06.610Z,492.49
2023-04-19T08:50:14.024Z,492.86
2023-04-19T08:51:08.800Z,494.32
2023-04-19T08:52:07.050Z,495.79
2023-04-19T08:53:24.078Z,499.13
2023-04-19T08:54:08.025Z,496.52
2023-04-19T08:55:07.024Z,495.05
2023-04-19T08:57:06.976Z,491.77
2023-04-19T08:58:12.261Z,489.24
2023-04-19T08:59:18.159Z,486.03
2023-04-19T09:00:08.618Z,483.91
2023-04-19T09:01:06.971Z,485.32
2023-04-19T09:02:06.990Z,484.27
2023-04-19T09:03:07.093Z,482.51
2023-04-19T09:04:17.163Z,475.97
2023-04-19T09:05:08.821Z,469.93
2023-04-19T09:06:07.580Z,464.05
2023-04-19T09:07:06.876Z,464.37
2023-04-19T09:08:06.817Z,457.67
2023-04-19T09:09:08.742Z,452.70
2023-04-19T09:10:06.993Z,447.24
2023-04-19T09:11:06.891Z,445.74
2023-04-19T09:12:06.758Z,442.20
2023-04-19T09:13:06.762Z,440.74
2023-04-19T09:14:06.746Z,442.49
2023-04-19T09:15:07.965Z,440.15
2023-04-19T09:16:06.758Z,436.41
2023-04-19T09:17:06.720Z,435.55
2023-04-19T09:18:06.733Z,440.45
2023-04-19T09:19:19.552Z,438.99
2023-04-19T09:20:07.642Z,434.99
2023-04-19T09:21:06.663Z,434.70
2023-04-19T09:22:06.649Z,432.45
2023-04-19T09:23:07.301Z,435.55
2023-04-19T09:24:06.614Z,434.70
2023-04-19T09:26:22.682Z,430.77
2023-04-19T09:27:07.577Z,428.28
2023-04-19T09:28:06.572Z,428.56
2023-04-19T09:29:06.540Z,428.56
2023-04-19T09:30:07.305Z,426.64
2023-04-19T09:31:20.363Z,425.82
2023-04-19T09:32:07.744Z,423.92
2023-04-19T09:33:06.323Z,420.98
2023-04-19T09:34:06.268Z,414.70
2023-04-19T09:35:06.291Z,414.18
2023-04-19T09:36:06.255Z,411.37
2023-04-19T09:37:13.462Z,409.35
2023-04-19T09:38:07.430Z,406.11
2023-04-19T09:39:06.411Z,406.36
2023-04-19T09:40:06.379Z,403.90
2023-04-19T09:41:06.380Z,401.46
2023-04-19T09:42:05.633Z,402.19
2023-04-19T09:43:29.089Z,398.58
2023-04-19T09:44:33.770Z,398.58
2023-04-19T09:46:06.349Z,395.04
2023-04-19T09:47:06.336Z,398.82
2023-04-19T09:48:06.352Z,394.58
2023-04-19T09:49:17.142Z,398.58
2023-04-19T09:50:19.305Z,397.40
2023-04-19T09:51:10.561Z,400.98
2023-04-19T09:52:07.269Z,401.71
2023-04-19T09:53:06.194Z,405.12
2023-04-19T09:54:06.225Z,403.41
2023-04-19T09:55:14.655Z,406.36
2023-04-19T09:56:07.155Z,406.61
2023-04-19T09:57:06.143Z,408.35
2023-04-19T09:58:06.169Z,404.88
2023-04-19T09:59:19.944Z,407.60
2023-04-19T10:00:07.077Z,406.61
2023-04-19T10:01:15.001Z,408.85
2023-04-19T10:02:07.946Z,409.35
2023-04-19T10:03:06.143Z,406.36
2023-04-19T10:04:23.887Z,407.60
2023-04-19T10:05:19.813Z,407.35
2023-04-19T10:06:14.495Z,407.60
2023-04-19T10:07:29.281Z,408.35
2023-04-19T10:08:07.048Z,410.11
2023-04-19T10:09:06.674Z,410.86
2023-04-19T10:10:18.577Z,413.92
2023-04-19T10:11:06.957Z,416.51
2023-04-19T10:12:18.509Z,419.13
2023-04-19T10:13:19.278Z,424.19
2023-04-19T10:14:06.916Z,424.46
2023-04-19T10:15:05.893Z,427.46
2023-04-19T10:16:18.119Z,429.11
2023-04-19T10:17:06.908Z,431.05
2023-04-19T10:18:05.937Z,436.98
2023-04-19T10:19:08.188Z,440.15
2023-04-19T10:20:05.808Z,440.74
2023-04-19T10:21:05.834Z,439.86
2023-04-19T10:22:05.797Z,442.78
2023-04-19T10:23:05.840Z,447.54
2023-04-19T10:24:06.503Z,453.01
2023-04-19T10:25:05.746Z,454.25
2023-04-19T10:26:06.460Z,454.25
2023-04-19T10:27:06.462Z,456.42
2023-04-19T10:28:05.737Z,459.89
2023-04-19T10:29:05.708Z,456.73
2023-04-19T10:30:07.396Z,459.57
2023-04-19T10:31:05.705Z,457.05
2023-04-19T10:32:06.461Z,453.63
2023-04-19T10:33:05.672Z,452.70
2023-04-19T10:34:05.638Z,443.08
2023-04-19T10:35:05.860Z,441.32
2023-04-19T10:36:06.292Z,440.74
2023-04-19T10:37:05.598Z,437.84
2023-04-19T10:38:05.588Z,437.27
2023-04-19T10:39:05.578Z,435.84
2023-04-19T10:40:05.539Z,434.14
2023-04-19T10:41:05.555Z,433.01
2023-04-19T10:42:05.528Z,431.61
2023-04-19T10:43:05.533Z,429.38
2023-04-19T10:44:05.543Z,429.38
2023-04-19T10:45:06.183Z,429.38
2023-04-19T10:46:05.214Z,427.73
2023-04-19T10:47:05.459Z,425.55
2023-04-19T10:48:05.454Z,422.05
2023-04-19T10:49:05.521Z,420.71
2023-04-19T10:50:05.424Z,419.66
2023-04-19T10:51:05.383Z,417.03
2023-04-19T10:52:05.396Z,418.34
2023-04-19T10:53:05.379Z,417.82
2023-04-19T10:54:05.149Z,417.29
2023-04-19T10:55:06.085Z,419.66
2023-04-19T10:56:05.359Z,421.25
2023-04-19T10:57:06.251Z,425.01
2023-04-19T10:58:05.324Z,423.12
2023-04-19T10:59:05.063Z,423.39
2023-04-19T11:00:05.298Z,420.71
2023-04-19T11:01:05.083Z,420.98
2023-04-19T11:02:05.477Z,420.98
2023-04-19T11:03:06.102Z,423.12
2023-04-19T11:04:05.674Z,420.98
2023-04-19T11:05:05.244Z,422.58
2023-04-19T11:06:05.435Z,421.78
2023-04-19T11:07:05.189Z,422.58
2023-04-19T11:08:05.175Z,424.73
2023-04-19T11:09:05.172Z,422.05
2023-04-19T11:10:05.888Z,421.78
2023-04-19T11:11:05.120Z,425.82
2023-04-19T11:12:05.170Z,423.12
2023-04-19T11:13:05.103Z,422.31
2023-04-19T11:14:05.098Z,424.73
2023-04-19T11:15:05.329Z,423.92
2023-04-19T11:16:05.072Z,422.05
2023-04-19T11:17:05.611Z,423.39
2023-04-19T11:18:12.443Z,421.51
2023-04-19T11:19:06.020Z,426.91
2023-04-19T11:20:05.016Z,427.46
2023-04-19T11:21:05.258Z,426.64
2023-04-19T11:22:04.974Z,427.73
2023-04-19T11:23:04.978Z,431.05
2023-04-19T11:24:04.988Z,431.05
2023-04-19T11:25:04.937Z,432.73
2023-04-19T11:26:04.941Z,434.14
2023-04-19T11:27:04.889Z,433.01
2023-04-19T11:28:04.898Z,429.66
2023-04-19T11:29:04.889Z,428.83
2023-04-19T11:30:04.871Z,426.09
2023-04-19T11:31:05.096Z,428.56
2023-04-19T11:32:04.851Z,425.28
2023-04-19T11:33:04.899Z,426.36
2023-04-19T11:34:04.822Z,423.39
2023-04-19T11:35:04.809Z,424.46
2023-04-19T11:36:04.788Z,423.12
2023-04-19T11:37:05.459Z,421.78
2023-04-19T11:38:04.767Z,422.85
2023-04-19T11:39:04.757Z,420.98
2023-04-19T11:40:05.307Z,419.92
2023-04-19T11:41:04.724Z,420.71
2023-04-19T11:42:04.676Z,419.66
2023-04-19T11:43:04.692Z,421.78
2023-04-19T11:44:04.728Z,420.45
2023-04-19T11:45:06.164Z,418.86
2023-04-19T11:46:04.655Z,419.92
2023-04-19T11:47:04.819Z,419.39
2023-04-19T11:48:04.649Z,423.65
2023-04-19T11:49:04.616Z,419.66
2023-04-19T11:50:04.361Z,420.98
2023-04-19T11:51:04.589Z,420.98
2023-04-19T11:52:05.930Z,420.18
2023-04-19T11:53:04.561Z,420.98
2023-04-19T11:54:04.376Z,421.51
2023-04-19T11:55:04.534Z,419.39
2023-04-19T11:56:04.520Z,420.98
2023-04-19T11:57:04.493Z,422.58
2023-04-19T11:58:04.368Z,421.78
2023-04-19T11:59:04.468Z,419.92
2023-04-19T12:00:04.477Z,419.66
2023-04-19T12:01:04.452Z,423.12
2023-04-19T12:02:04.475Z,419.13
2023-04-19T12:03:04.545Z,423.12
2023-04-19T12:04:04.504Z,418.60
2023-04-19T12:05:04.483Z,421.25
2023-04-19T12:06:04.629Z,422.31
2023-04-19T12:07:05.057Z,422.05
2023-04-19T12:08:05.075Z,420.18
2023-04-19T12:09:04.358Z,423.65
2023-04-19T12:10:04.337Z,422.05
2023-04-19T12:11:04.319Z,420.98
2023-04-19T12:12:04.311Z,421.25
2023-04-19T12:13:04.553Z,424.46
2023-04-19T12:14:04.268Z,423.12
2023-04-19T12:15:04.031Z,432.17
2023-04-19T12:16:04.240Z,432.73
2023-04-19T12:17:04.944Z,436.98
2023-04-19T12:18:04.959Z,444.85
2023-04-19T12:19:04.201Z,449.05
2023-04-19T12:20:04.201Z,452.40
2023-04-19T12:21:04.168Z,454.87
2023-04-19T12:22:04.890Z,462.12
2023-04-19T12:23:04.130Z,466.97
2023-04-19T12:24:04.128Z,469.27
2023-04-19T12:25:04.342Z,476.31
2023-04-19T12:26:04.101Z,479.39
2023-04-19T12:27:04.111Z,490.68
2023-04-19T12:28:04.768Z,490.32
2023-04-19T12:29:04.158Z,491.40
2023-04-19T12:30:04.043Z,495.42
2023-04-19T12:31:04.058Z,501.38
2023-04-19T12:32:04.030Z,510.20
2023-04-19T12:33:04.308Z,516.12
2023-04-19T12:34:04.000Z,516.12
2023-04-19T12:35:04.231Z,527.98